createdAt,value
2023-01-19T00:00:05.806Z,97345.50
2023-01-19T00:02:33.099Z,97343.00
2023-01-19T00:05:00.499Z,97343.00
2023-01-19T00:07:27.686Z,97343.97
2023-01-19T00:09:54.872Z,97346.56
2023-01-19T00:12:22.068Z,97355.56
2023-01-19T00:17:36.389Z,97352.69
2023-01-19T00:20:04.040Z,97358.69
2023-01-19T00:22:31.307Z,97364.28
2023-01-19T00:27:49.513Z,97368.81
2023-01-19T00:30:16.716Z,97367.44
2023-01-19T00:32:43.903Z,97368.25
2023-01-19T00:35:11.076Z,97367.44
2023-01-19T00:37:38.290Z,97367.56
2023-01-19T00:40:05.471Z,97370.03
2023-01-19T00:42:41.841Z,97371.94
2023-01-19T00:45:09.057Z,97369.47
2023-01-19T00:47:36.251Z,97366.31
2023-01-19T00:50:03.436Z,97369.84
2023-01-19T00:52:30.623Z,97369.03
2023-01-19T00:54:57.812Z,97373.28
2023-01-19T00:57:24.983Z,97379.16
2023-01-19T00:59:52.201Z,97375.75
2023-01-19T01:02:19.549Z,97376.00
2023-01-19T01:04:46.834Z,97375.34
2023-01-19T01:07:14.103Z,97387.34
2023-01-19T01:09:41.284Z,97388.16
2023-01-19T01:12:08.465Z,97391.97
2023-01-19T01:14:35.649Z,97397.41
2023-01-19T01:17:03.017Z,97399.88
2023-01-19T01:19:30.193Z,97397.81
2023-01-19T01:21:57.373Z,97404.22
2023-01-19T01:24:24.551Z,97406.00
2023-01-19T01:26:51.767Z,97398.47
2023-01-19T01:29:18.978Z,97404.50
2023-01-19T01:31:46.307Z,97415.00
2023-01-19T01:34:13.529Z,97410.63
2023-01-19T01:36:40.774Z,97418.69
2023-01-19T01:39:07.963Z,97412.66
2023-01-19T01:41:35.209Z,97418.13
2023-01-19T01:44:06.248Z,97412.00
2023-01-19T01:46:33.460Z,97416.78
2023-01-19T01:49:00.643Z,97414.03
2023-01-19T01:51:27.916Z,97417.28
2023-01-19T01:53:55.119Z,97416.34
2023-01-19T01:56:22.291Z,97417.19
2023-01-19T01:58:49.486Z,97421.66
2023-01-19T02:01:35.281Z,97419.88
2023-01-19T02:04:02.527Z,97430.50
2023-01-19T02:06:29.716Z,97423.53
2023-01-19T02:09:15.628Z,97420.38
2023-01-19T02:12:01.250Z,97415.06
2023-01-19T02:14:28.432Z,97424.63
2023-01-19T02:16:55.624Z,97417.78
2023-01-19T02:22:09.947Z,97424.63
2023-01-19T02:24:37.131Z,97418.63
2023-01-19T02:32:18.514Z,97433.84
2023-01-19T02:34:45.736Z,97424.06
2023-01-19T02:37:13.073Z,97421.59
2023-01-19T02:39:40.284Z,97426.09
2023-01-19T02:42:07.464Z,97421.97
2023-01-19T02:44:34.638Z,97418.44
2023-01-19T02:47:01.820Z,97420.91
2023-01-19T02:49:30.068Z,97422.66
2023-01-19T02:51:57.272Z,97415.97
2023-01-19T02:54:24.454Z,97416.91
2023-01-19T02:59:38.776Z,97420.34
2023-01-19T03:02:06.050Z,97421.44
2023-01-19T03:04:33.496Z,97421.44
2023-01-19T03:07:00.857Z,97426.63
2023-01-19T03:09:28.378Z,97431.09
2023-01-19T03:11:55.569Z,97427.53
2023-01-19T03:14:22.776Z,97436.53
2023-01-19T03:16:49.989Z,97436.13
2023-01-19T03:19:17.381Z,97437.09
2023-01-19T03:21:44.563Z,97444.75
2023-01-19T03:24:11.750Z,97444.19
2023-01-19T03:26:38.961Z,97447.59
2023-01-19T03:29:06.968Z,97449.63
2023-01-19T03:31:34.303Z,97454.00
2023-01-19T03:36:48.559Z,97452.22
2023-01-19T03:39:15.752Z,97457.91
2023-01-19T03:41:42.931Z,97462.84
2023-01-19T03:44:10.099Z,97462.69
2023-01-19T03:46:37.325Z,97474.72
2023-01-19T03:49:04.534Z,97472.38
2023-01-19T03:51:31.713Z,97468.69
2023-01-19T03:53:58.883Z,97467.06
2023-01-19T03:56:26.084Z,97468.97
2023-01-19T03:58:53.943Z,97471.81
2023-01-19T04:01:23.039Z,97471.00
2023-01-19T04:03:50.580Z,97471.94
2023-01-19T04:06:17.790Z,97472.78
2023-01-19T04:08:45.110Z,97465.09
2023-01-19T04:11:13.317Z,97467.84
2023-01-19T04:13:40.561Z,97482.28
2023-01-19T04:16:08.375Z,97490.44
2023-01-19T04:18:35.952Z,97493.03
2023-01-19T04:21:03.123Z,97499.03
2023-01-19T04:23:30.309Z,97493.19
2023-01-19T04:25:57.496Z,97491.53
2023-01-19T04:28:24.684Z,97487.84
2023-01-19T04:30:52.341Z,97486.22
2023-01-19T04:33:19.532Z,97486.38
2023-01-19T04:35:46.710Z,97488.94
2023-01-19T04:38:13.897Z,97483.63
2023-01-19T04:40:41.116Z,97477.88
2023-01-19T04:43:08.318Z,97479.75
2023-01-19T04:45:36.620Z,97479.50
2023-01-19T04:48:06.810Z,97484.69
2023-01-19T04:50:33.994Z,97481.19
2023-01-19T04:53:02.447Z,97486.59
2023-01-19T04:55:29.769Z,97485.06
2023-01-19T04:57:57.016Z,97487.66
2023-01-19T05:00:24.211Z,97487.81
2023-01-19T05:02:51.460Z,97489.31
2023-01-19T05:05:18.807Z,97489.19
2023-01-19T05:07:45.987Z,97492.84
2023-01-19T05:10:13.200Z,97495.59
2023-01-19T05:12:40.380Z,97490.13
2023-01-19T05:15:09.647Z,97489.81
2023-01-19T05:17:40.136Z,97493.91
2023-01-19T05:20:07.351Z,97488.06
2023-01-19T05:22:34.603Z,97486.66
2023-01-19T05:25:01.809Z,97492.53
2023-01-19T05:27:29.090Z,97495.13
2023-01-19T05:29:56.269Z,97496.50
2023-01-19T05:32:23.492Z,97501.81
2023-01-19T05:34:50.719Z,97497.47
2023-01-19T05:37:17.931Z,97504.41
2023-01-19T05:39:45.113Z,97500.75
2023-01-19T05:42:12.347Z,97503.84
2023-01-19T05:44:39.544Z,97499.47
2023-01-19T05:47:06.756Z,97510.66
2023-01-19T05:49:33.928Z,97505.63
2023-01-19T05:52:01.288Z,97512.56
2023-01-19T05:54:28.467Z,97510.91
2023-01-19T05:56:55.662Z,97513.63
2023-01-19T05:59:24.378Z,97517.84
2023-01-19T06:01:51.841Z,97519.78
2023-01-19T06:04:19.685Z,97530.00
2023-01-19T06:06:47.175Z,97522.34
2023-01-19T06:09:14.629Z,97525.38
2023-01-19T06:11:42.046Z,97523.84
2023-01-19T06:14:09.493Z,97524.94
2023-01-19T06:16:37.037Z,97520.59
2023-01-19T06:19:04.437Z,97513.78
2023-01-19T06:21:31.781Z,97519.88
2023-01-19T06:23:59.267Z,97520.97
2023-01-19T06:26:26.694Z,97516.69
2023-01-19T06:28:54.100Z,97526.00
2023-01-19T06:31:21.436Z,97522.47
2023-01-19T06:33:48.889Z,97522.22
2023-01-19T06:36:16.244Z,97520.72
2023-01-19T06:38:43.569Z,97520.81
2023-01-19T06:41:10.935Z,97520.97
2023-01-19T06:43:38.351Z,97531.19
2023-01-19T06:46:08.813Z,97541.44
2023-01-19T06:48:36.219Z,97544.84
2023-01-19T06:51:03.589Z,97540.50
2023-01-19T06:53:30.977Z,97549.31
2023-01-19T06:56:06.014Z,97544.97
2023-01-19T06:58:34.963Z,97551.91
2023-01-19T07:03:30.876Z,97558.63
2023-01-19T07:05:58.432Z,97556.84
2023-01-19T07:08:25.826Z,97557.09
2023-01-19T07:11:24.892Z,97560.41
2023-01-19T07:13:40.672Z,97564.63
2023-01-19T07:16:08.338Z,97562.03
2023-01-19T07:18:35.920Z,97570.63
2023-01-19T07:23:50.845Z,97561.31
2023-01-19T07:26:21.935Z,97566.97
2023-01-19T07:31:22.029Z,97563.66
2023-01-19T07:36:19.223Z,97567.78
2023-01-19T07:43:41.527Z,97570.00
2023-01-19T07:48:56.272Z,97579.78
2023-01-19T07:51:23.809Z,97565.78
2023-01-19T07:59:24.201Z,97582.97
2023-01-19T08:04:28.988Z,97582.09
2023-01-19T08:06:56.401Z,97588.53
2023-01-19T08:09:24.507Z,97596.91
2023-01-19T08:14:19.183Z,97593.97
2023-01-19T08:16:46.516Z,97594.53
2023-01-19T08:19:13.995Z,97598.88
2023-01-19T08:21:41.481Z,97601.22
2023-01-19T08:24:11.384Z,97601.59
2023-01-19T08:26:39.131Z,97610.78
2023-01-19T08:29:15.867Z,97614.91
2023-01-19T08:31:44.098Z,97607.03
2023-01-19T08:34:11.490Z,97610.19
2023-01-19T08:36:41.170Z,97609.94
2023-01-19T08:41:35.977Z,97618.88
2023-01-19T08:44:03.462Z,97618.50
2023-01-19T08:46:31.264Z,97618.75
2023-01-19T08:48:58.672Z,97628.28
2023-01-19T08:51:26.128Z,97631.03
2023-01-19T08:53:53.464Z,97633.47
2023-01-19T08:56:20.960Z,97629.81
2023-01-19T08:58:59.453Z,97635.59
2023-01-19T09:01:37.166Z,97633.94
2023-01-19T09:04:05.033Z,97643.38
2023-01-19T09:06:33.044Z,97648.41
2023-01-19T09:09:00.630Z,97647.47
2023-01-19T09:11:28.025Z,97643.84
2023-01-19T09:13:55.426Z,97648.19
2023-01-19T09:16:22.937Z,97649.72
2023-01-19T09:18:50.312Z,97647.72
2023-01-19T09:21:18.709Z,97652.66
2023-01-19T09:23:46.153Z,97648.31
2023-01-19T09:26:13.707Z,97647.25
2023-01-19T09:28:41.104Z,97650.56
2023-01-19T09:31:08.596Z,97650.75
2023-01-19T09:33:36.051Z,97649.78
2023-01-19T09:36:03.531Z,97660.97
2023-01-19T09:38:42.636Z,97647.19
2023-01-19T09:43:50.674Z,97659.25
2023-01-19T09:46:18.102Z,97660.88
2023-01-19T09:48:45.957Z,97652.97
2023-01-19T09:53:40.942Z,97654.28
2023-01-19T09:56:08.291Z,97659.47
2023-01-19T09:58:35.953Z,97665.25
2023-01-19T10:01:05.860Z,97662.66
2023-01-19T10:03:33.301Z,97652.97
2023-01-19T10:06:01.181Z,97652.72
2023-01-19T10:08:28.612Z,97655.44
2023-01-19T10:13:23.658Z,97656.00
2023-01-19T10:18:21.879Z,97650.69
2023-01-19T10:20:50.080Z,97653.16
2023-01-19T10:25:44.704Z,97652.22
2023-01-19T10:28:12.079Z,97649.72
2023-01-19T10:30:41.884Z,97651.41
2023-01-19T10:33:09.258Z,97649.34
2023-01-19T10:35:38.858Z,97644.78
2023-01-19T10:43:01.687Z,97656.69
2023-01-19T10:45:38.132Z,97655.75
2023-01-19T10:48:05.600Z,97659.44
2023-01-19T10:50:33.098Z,97653.16
2023-01-19T10:53:00.871Z,97646.22
2023-01-19T10:55:28.526Z,97657.66
2023-01-19T10:57:55.979Z,97660.00
2023-01-19T11:00:23.422Z,97653.16
2023-01-19T11:02:51.043Z,97653.84
2023-01-19T11:07:45.811Z,97652.31
2023-01-19T11:10:13.152Z,97643.47
2023-01-19T11:12:40.510Z,97647.97
2023-01-19T11:17:38.419Z,97640.75
2023-01-19T11:22:34.887Z,97631.19
2023-01-19T11:25:02.319Z,97626.13
2023-01-19T11:27:29.765Z,97628.72
2023-01-19T11:29:58.421Z,97627.78
2023-01-19T11:32:35.074Z,97633.78
2023-01-19T11:35:02.695Z,97625.91
2023-01-19T11:37:30.394Z,97623.31
2023-01-19T11:40:32.069Z,97630.38
2023-01-19T11:45:42.714Z,97621.38
2023-01-19T11:48:23.034Z,97622.47
2023-01-19T11:51:04.104Z,97623.97
2023-01-19T11:53:36.190Z,97629.06
2023-01-19T11:56:04.931Z,97622.34
2023-01-19T11:58:32.988Z,97628.09
2023-01-19T12:01:02.396Z,97624.81
2023-01-19T12:03:33.077Z,97620.56
2023-01-19T12:06:00.630Z,97626.47
2023-01-19T12:08:29.920Z,97615.28
2023-01-19T12:13:24.840Z,97616.91
2023-01-19T12:15:52.187Z,97623.72
2023-01-19T12:18:22.545Z,97620.47
2023-01-19T12:20:55.545Z,97624.69
2023-01-19T12:23:23.171Z,97622.53
2023-01-19T12:25:53.321Z,97623.72
2023-01-19T12:28:26.361Z,97621.84
2023-01-19T12:30:54.013Z,97622.53
2023-01-19T12:33:24.378Z,97620.75
2023-01-19T12:35:52.090Z,97626.66
2023-01-19T12:38:30.384Z,97620.50
2023-01-19T12:41:00.168Z,97618.28
2023-01-19T12:43:30.313Z,97619.25
2023-01-19T12:46:09.317Z,97622.41
2023-01-19T12:48:36.890Z,97622.53
2023-01-19T12:51:05.228Z,97609.19
2023-01-19T13:03:52.667Z,97615.19
2023-01-19T13:06:20.133Z,97613.41
2023-01-19T13:08:47.554Z,97610.00
2023-01-19T13:11:15.271Z,97613.53
2023-01-19T13:13:43.842Z,97608.91
2023-01-19T13:16:13.990Z,97614.38
2023-01-19T13:18:45.152Z,97611.41
2023-01-19T13:23:56.157Z,97605.38
2023-01-19T13:26:23.797Z,97601.84
2023-01-19T13:34:52.924Z,97603.34
2023-01-19T13:37:20.138Z,97603.22
2023-01-19T13:39:50.034Z,97604.19
2023-01-19T13:42:17.256Z,97599.09
2023-01-19T13:44:47.106Z,97607.44
2023-01-19T13:47:14.317Z,97605.94
2023-01-19T13:49:41.499Z,97601.59
2023-01-19T13:52:08.672Z,97605.25
2023-01-19T13:54:35.862Z,97604.84
2023-01-19T13:57:03.101Z,97603.06
2023-01-19T13:59:30.326Z,97612.78
2023-01-19T14:01:58.174Z,97609.38
2023-01-19T14:04:25.635Z,97607.69
2023-01-19T14:06:55.700Z,97619.03
2023-01-19T14:09:22.950Z,97614.66
2023-01-19T14:11:50.136Z,97612.63
2023-01-19T14:14:17.330Z,97619.59
2023-01-19T14:16:44.502Z,97621.00
2023-01-19T14:21:58.791Z,97623.47
2023-01-19T14:24:29.717Z,97622.38
2023-01-19T14:26:57.008Z,97623.34
2023-01-19T14:29:24.442Z,97614.84
2023-01-19T14:34:39.168Z,97623.09
2023-01-19T14:37:06.401Z,97622.94
2023-01-19T14:39:33.666Z,97620.34
2023-01-19T14:42:00.939Z,97624.72
2023-01-19T14:44:28.413Z,97621.88
2023-01-19T14:46:56.512Z,97623.75
2023-01-19T14:49:23.891Z,97625.44
2023-01-19T14:54:38.375Z,97625.53
2023-01-19T14:57:05.572Z,97619.13
2023-01-19T14:59:32.780Z,97622.81
2023-01-19T15:02:00.222Z,97622.69
2023-01-19T15:04:27.531Z,97631.13
2023-01-19T15:06:54.711Z,97624.84
2023-01-19T15:09:21.910Z,97625.44
2023-01-19T15:11:49.250Z,97629.66
2023-01-19T15:14:16.453Z,97633.63
2023-01-19T15:16:43.673Z,97633.88
2023-01-19T15:21:58.246Z,97634.72
2023-01-19T15:24:25.475Z,97639.66
2023-01-19T15:29:19.800Z,97642.63
2023-01-19T15:31:47.096Z,97634.72
2023-01-19T15:34:14.681Z,97639.91
2023-01-19T15:36:42.622Z,97633.63
2023-01-19T15:41:57.680Z,97643.88
2023-01-19T15:44:24.982Z,97636.38
2023-01-19T15:46:54.613Z,97635.28
2023-01-19T15:49:23.144Z,97641.16
2023-01-19T15:51:50.494Z,97642.00
2023-01-19T15:54:17.798Z,97636.09
2023-01-19T15:56:45.045Z,97632.41
2023-01-19T16:02:06.858Z,97640.91
2023-01-19T16:04:36.433Z,97643.13
2023-01-19T16:09:50.687Z,97643.50
2023-01-19T16:12:17.872Z,97642.31
2023-01-19T16:14:45.060Z,97641.34
2023-01-19T16:20:01.767Z,97637.94
2023-01-19T16:22:29.424Z,97639.81
2023-01-19T16:24:56.636Z,97642.31
2023-01-19T16:27:24.397Z,97648.06
2023-01-19T16:29:52.321Z,97644.06
2023-01-19T16:32:21.488Z,97645.72
2023-01-19T16:34:49.300Z,97642.97
2023-01-19T16:37:16.598Z,97650.66
2023-01-19T16:39:45.440Z,97646.41
2023-01-19T16:44:59.980Z,97646.13
2023-01-19T16:47:27.173Z,97646.97
2023-01-19T16:49:54.572Z,97647.66
2023-01-19T16:52:21.766Z,97654.75
2023-01-19T16:54:49.136Z,97657.63
2023-01-19T16:57:16.791Z,97652.44
2023-01-19T16:59:45.141Z,97649.69
2023-01-19T17:05:00.323Z,97649.84
2023-01-19T17:07:27.512Z,97655.72
2023-01-19T17:09:54.686Z,97654.88
2023-01-19T17:12:21.866Z,97655.56
2023-01-19T17:14:49.044Z,97667.31
2023-01-19T17:17:16.236Z,97661.03
2023-01-19T17:19:45.066Z,97663.34
2023-01-19T17:24:42.536Z,97663.50
2023-01-19T17:29:56.995Z,97664.31
2023-01-19T17:32:24.210Z,97666.91
2023-01-19T17:34:51.453Z,97677.44
2023-01-19T17:37:18.625Z,97669.75
2023-01-19T17:39:45.822Z,97677.44
2023-01-19T17:44:42.391Z,97673.31
2023-01-19T17:49:56.652Z,97675.91
2023-01-19T17:52:23.883Z,97677.69
2023-01-19T17:57:38.227Z,97679.22
2023-01-19T18:00:05.418Z,97685.34
2023-01-19T18:05:19.896Z,97689.03
2023-01-19T18:07:47.121Z,97692.44
2023-01-19T18:10:14.641Z,97690.81
2023-01-19T18:12:42.080Z,97688.22
2023-01-19T18:17:56.402Z,97688.47
2023-01-19T18:20:23.593Z,97699.41
2023-01-19T18:22:50.762Z,97691.63
2023-01-19T18:25:18.039Z,97698.47
2023-01-19T18:27:45.244Z,97689.16
2023-01-19T18:32:59.520Z,97696.00
2023-01-19T18:35:26.708Z,97695.72
2023-01-19T18:37:54.909Z,97702.84
2023-01-19T18:40:22.079Z,97696.69
2023-01-19T18:42:49.470Z,97695.28
2023-01-19T18:45:16.653Z,97701.06
2023-01-19T18:47:43.830Z,97696.00
2023-01-19T18:52:59.649Z,97704.03
2023-01-19T18:55:26.932Z,97711.00
2023-01-19T18:57:54.288Z,97705.69
2023-01-19T19:00:21.474Z,97708.28
2023-01-19T19:02:48.652Z,97708.13
2023-01-19T19:05:16.150Z,97710.88
2023-01-19T19:07:43.771Z,97707.31
2023-01-19T19:10:11.600Z,97709.25
2023-01-19T19:12:39.221Z,97716.63
2023-01-19T19:15:06.658Z,97706.50
2023-01-19T19:17:33.914Z,97716.22
2023-01-19T19:20:01.098Z,97711.00
2023-01-19T19:22:28.285Z,97700.63
2023-01-19T19:24:55.460Z,97711.94
2023-01-19T19:27:22.655Z,97703.22
2023-01-19T19:29:49.906Z,97704.28
2023-01-19T19:32:20.421Z,97713.97
2023-01-19T19:34:49.257Z,97713.97
2023-01-19T19:37:16.419Z,97712.22
2023-01-19T19:39:43.616Z,97717.53
2023-01-19T19:44:57.920Z,97716.72
2023-01-19T19:47:25.178Z,97715.63
2023-01-19T19:52:39.737Z,97708.78
2023-01-19T19:55:07.055Z,97713.16
2023-01-19T19:57:34.251Z,97715.75
2023-01-19T20:00:02.314Z,97719.31
2023-01-19T20:02:29.531Z,97723.44
2023-01-19T20:04:58.523Z,97719.69
2023-01-19T20:07:25.906Z,97717.09
2023-01-19T20:09:55.047Z,97727.22
2023-01-19T20:12:22.345Z,97718.72
2023-01-19T20:14:49.540Z,97727.34
2023-01-19T20:17:16.758Z,97728.53
2023-01-19T20:19:45.630Z,97725.69
2023-01-19T20:22:12.821Z,97726.78
2023-01-19T20:24:40.014Z,97724.88
2023-01-19T20:29:58.066Z,97725.94
2023-01-19T20:32:25.271Z,97725.84
2023-01-19T20:34:52.456Z,97726.91
2023-01-19T20:37:19.641Z,97734.81
2023-01-19T20:39:46.874Z,97739.06
2023-01-19T20:42:16.430Z,97735.75
2023-01-19T20:44:43.665Z,97741.78
2023-01-19T20:49:58.160Z,97748.97
2023-01-19T20:52:25.344Z,97739.06
2023-01-19T20:54:52.633Z,97740.84
2023-01-19T20:57:19.801Z,97741.19
2023-01-19T20:59:47.057Z,97744.75
2023-01-19T21:02:16.010Z,97748.16
2023-01-19T21:04:43.207Z,97751.22
2023-01-19T21:09:57.513Z,97751.72
2023-01-19T21:12:24.698Z,97757.03
2023-01-19T21:17:19.034Z,97756.78
2023-01-19T21:19:46.273Z,97763.75
2023-01-19T21:22:13.476Z,97762.25
2023-01-19T21:24:41.529Z,97766.34
2023-01-19T21:29:58.625Z,97771.91
2023-01-19T21:32:25.825Z,97768.25
2023-01-19T21:34:53.012Z,97767.66
2023-01-19T21:37:20.192Z,97772.47
2023-01-19T21:39:47.447Z,97766.56
2023-01-19T21:42:15.237Z,97768.34
2023-01-19T21:44:42.464Z,97779.44
2023-01-19T21:47:11.861Z,97773.69
2023-01-19T21:52:26.426Z,97778.06
2023-01-19T21:54:53.680Z,97774.75
2023-01-19T21:57:20.876Z,97779.56
2023-01-19T21:59:48.049Z,97776.53
2023-01-19T22:05:02.964Z,97787.03
2023-01-19T22:07:30.170Z,97782.09
2023-01-19T22:09:57.357Z,97785.63
2023-01-19T22:12:24.536Z,97789.06
2023-01-19T22:14:51.957Z,97791.66
2023-01-19T22:17:19.186Z,97792.56
2023-01-19T22:19:46.366Z,97785.88
2023-01-19T22:22:14.943Z,97791.75
2023-01-19T22:24:46.561Z,97791.88
2023-01-19T22:27:13.835Z,97794.72
2023-01-19T22:29:41.058Z,97792.13
2023-01-19T22:32:08.232Z,97797.31
2023-01-19T22:34:35.428Z,97790.50
2023-01-19T22:37:02.683Z,97796.38
2023-01-19T22:39:29.908Z,97793.91
2023-01-19T22:41:57.079Z,97793.91
2023-01-19T22:44:24.281Z,97793.31
2023-01-19T22:46:51.476Z,97796.75
2023-01-19T22:49:18.658Z,97794.28
2023-01-19T22:51:45.923Z,97794.28
2023-01-19T22:54:13.132Z,97792.38
2023-01-19T22:56:40.323Z,97790.00
2023-01-19T22:59:07.539Z,97790.16
2023-01-19T23:01:34.869Z,97782.38
2023-01-19T23:04:02.401Z,97785.09
2023-01-19T23:06:29.597Z,97791.09
2023-01-19T23:08:56.773Z,97787.56
2023-01-19T23:11:23.977Z,97793.69
2023-01-19T23:13:51.186Z,97791.22
2023-01-19T23:16:18.388Z,97791.94
2023-01-19T23:18:45.584Z,97792.31
2023-01-19T23:21:12.777Z,97796.28
2023-01-19T23:23:39.975Z,97789.56
2023-01-19T23:26:07.213Z,97792.31
2023-01-19T23:28:34.705Z,97794.75
2023-01-19T23:31:01.970Z,97791.59
2023-01-19T23:33:29.221Z,97787.13
2023-01-19T23:35:56.421Z,97789.94
2023-01-19T23:38:23.661Z,97789.22
2023-01-19T23:40:50.876Z,97794.41
2023-01-19T23:43:18.061Z,97795.25
2023-01-19T23:45:45.245Z,97797.72
2023-01-19T23:50:59.511Z,97801.97
2023-01-19T23:53:26.766Z,97807.38
2023-01-19T23:55:53.970Z,97805.75
2023-01-19T23:58:21.232Z,97810.50
